sensor_id;sensor_type;location;lat;lon;timestamp;P1;durP1;ratioP1;P2;durP2;ratioP2
52043;SDS011;38053;53.100;6.078;2022-09-01T00:00:24;3.20;;;1.40;;
52043;SDS011;38053;53.100;6.078;2022-09-01T00:02:54;6.43;;;1.80;;
52043;SDS011;38053;53.100;6.078;2022-09-01T00:05:20;5.38;;;1.67;;
52043;SDS011;38053;53.100;6.078;2022-09-01T00:07:46;7.30;;;1.83;;
52043;SDS011;38053;53.100;6.078;2022-09-01T00:10:13;2.17;;;1.23;;
52043;SDS011;38053;53.100;6.078;2022-09-01T00:12:39;7.05;;;1.58;;
52043;SDS011;38053;53.100;6.078;2022-09-01T00:15:06;8.38;;;1.50;;
52043;SDS011;38053;53.100;6.078;2022-09-01T00:17:36;3.03;;;1.45;;
52043;SDS011;38053;53.100;6.078;2022-09-01T00:20:06;6.60;;;2.80;;
52043;SDS011;38053;53.100;6.078;2022-09-01T00:22:35;6.15;;;1.45;;
52043;SDS011;38053;53.100;6.078;2022-09-01T00:25:00;3.95;;;1.45;;
52043;SDS011;38053;53.100;6.078;2022-09-01T00:27:26;2.58;;;1.30;;
52043;SDS011;38053;53.100;6.078;2022-09-01T00:29:54;4.45;;;1.60;;
52043;SDS011;38053;53.100;6.078;2022-09-01T00:32:20;3.38;;;0.95;;
52043;SDS011;38053;53.100;6.078;2022-09-01T00:34:46;4.50;;;1.50;;
52043;SDS011;38053;53.100;6.078;2022-09-01T00:37:15;4.93;;;1.58;;
52043;SDS011;38053;53.100;6.078;2022-09-01T00:39:43;2.53;;;1.25;;
52043;SDS011;38053;53.100;6.078;2022-09-01T00:42:09;2.78;;;1.30;;
52043;SDS011;38053;53.100;6.078;2022-09-01T00:44:35;3.17;;;1.48;;
52043;SDS011;38053;53.100;6.078;2022-09-01T00:47:02;3.47;;;1.30;;
52043;SDS011;38053;53.100;6.078;2022-09-01T00:49:32;2.58;;;1.20;;
52043;SDS011;38053;53.100;6.078;2022-09-01T00:52:09;2.42;;;1.27;;
52043;SDS011;38053;53.100;6.078;2022-09-01T00:54:48;4.68;;;1.25;;
52043;SDS011;38053;53.100;6.078;2022-09-01T00:57:18;3.45;;;1.10;;
52043;SDS011;38053;53.100;6.078;2022-09-01T00:59:46;3.28;;;1.27;;
52043;SDS011;38053;53.100;6.078;2022-09-01T01:02:17;3.95;;;1.02;;
52043;SDS011;38053;53.100;6.078;2022-09-01T01:04:43;1.65;;;0.93;;
52043;SDS011;38053;53.100;6.078;2022-09-01T01:07:11;2.97;;;1.60;;
52043;SDS011;38053;53.100;6.078;2022-09-01T01:09:39;3.78;;;1.48;;
52043;SDS011;38053;53.100;6.078;2022-09-01T01:12:08;3.45;;;1.30;;
52043;SDS011;38053;53.100;6.078;2022-09-01T01:14:38;2.93;;;1.20;;
52043;SDS011;38053;53.100;6.078;2022-09-01T01:17:05;2.53;;;0.93;;
52043;SDS011;38053;53.100;6.078;2022-09-01T01:19:41;2.42;;;1.10;;
52043;SDS011;38053;53.100;6.078;2022-09-01T01:25:40;3.63;;;1.00;;
52043;SDS011;38053;53.100;6.078;2022-09-01T01:28:14;3.00;;;1.40;;
52043;SDS011;38053;53.100;6.078;2022-09-01T01:30:44;1.95;;;1.13;;
52043;SDS011;38053;53.100;6.078;2022-09-01T01:33:16;3.65;;;1.35;;
52043;SDS011;38053;53.100;6.078;2022-09-01T01:35:44;1.60;;;0.90;;
52043;SDS011;38053;53.100;6.078;2022-09-01T01:38:11;3.10;;;1.42;;
52043;SDS011;38053;53.100;6.078;2022-09-01T01:40:39;2.97;;;1.20;;
52043;SDS011;38053;53.100;6.078;2022-09-01T01:43:05;2.88;;;1.00;;
52043;SDS011;38053;53.100;6.078;2022-09-01T01:45:31;2.75;;;1.20;;
52043;SDS011;38053;53.100;6.078;2022-09-01T01:48:00;3.92;;;1.42;;
52043;SDS011;38053;53.100;6.078;2022-09-01T01:50:32;2.05;;;1.20;;
52043;SDS011;38053;53.100;6.078;2022-09-01T01:53:04;2.42;;;1.30;;
52043;SDS011;38053;53.100;6.078;2022-09-01T01:55:31;2.58;;;1.00;;
52043;SDS011;38053;53.100;6.078;2022-09-01T01:57:57;3.70;;;1.10;;
52043;SDS011;38053;53.100;6.078;2022-09-01T02:00:28;2.55;;;1.20;;
52043;SDS011;38053;53.100;6.078;2022-09-01T02:02:59;2.85;;;1.45;;
52043;SDS011;38053;53.100;6.078;2022-09-01T02:05:27;2.85;;;1.25;;
52043;SDS011;38053;53.100;6.078;2022-09-01T02:08:04;2.97;;;1.27;;
52043;SDS011;38053;53.100;6.078;2022-09-01T02:10:41;2.08;;;1.20;;
52043;SDS011;38053;53.100;6.078;2022-09-01T02:13:10;2.92;;;0.98;;
52043;SDS011;38053;53.100;6.078;2022-09-01T02:15:41;2.08;;;1.02;;
52043;SDS011;38053;53.100;6.078;2022-09-01T02:18:19;2.95;;;1.23;;
52043;SDS011;38053;53.100;6.078;2022-09-01T02:20:48;1.83;;;1.10;;
52043;SDS011;38053;53.100;6.078;2022-09-01T02:23:16;2.83;;;1.23;;
52043;SDS011;38053;53.100;6.078;2022-09-01T02:25:47;2.28;;;1.10;;
52043;SDS011;38053;53.100;6.078;2022-09-01T02:28:16;4.05;;;1.38;;
52043;SDS011;38053;53.100;6.078;2022-09-01T02:30:46;5.32;;;0.93;;
52043;SDS011;38053;53.100;6.078;2022-09-01T02:33:16;3.13;;;1.25;;
52043;SDS011;38053;53.100;6.078;2022-09-01T02:36:03;3.17;;;1.20;;
52043;SDS011;38053;53.100;6.078;2022-09-01T02:38:31;2.22;;;1.20;;
52043;SDS011;38053;53.100;6.078;2022-09-01T02:41:00;5.13;;;1.02;;
52043;SDS011;38053;53.100;6.078;2022-09-01T02:43:29;3.42;;;1.10;;
52043;SDS011;38053;53.100;6.078;2022-09-01T02:46:01;6.47;;;1.50;;
52043;SDS011;38053;53.100;6.078;2022-09-01T02:48:31;5.80;;;1.35;;
52043;SDS011;38053;53.100;6.078;2022-09-01T02:51:01;1.90;;;1.05;;
52043;SDS011;38053;53.100;6.078;2022-09-01T02:53:31;2.35;;;1.20;;
52043;SDS011;38053;53.100;6.078;2022-09-01T02:56:01;2.80;;;1.35;;
52043;SDS011;38053;53.100;6.078;2022-09-01T02:58:33;2.58;;;1.30;;
52043;SDS011;38053;53.100;6.078;2022-09-01T03:01:09;2.22;;;1.13;;
52043;SDS011;38053;53.100;6.078;2022-09-01T03:03:43;7.13;;;1.25;;
52043;SDS011;38053;53.100;6.078;2022-09-01T03:06:09;2.60;;;1.30;;
52043;SDS011;38053;53.100;6.078;2022-09-01T03:08:36;2.65;;;1.05;;
52043;SDS011;38053;53.100;6.078;2022-09-01T03:11:04;3.95;;;1.20;;
52043;SDS011;38053;53.100;6.078;2022-09-01T03:13:46;3.35;;;1.05;;
52043;SDS011;38053;53.100;6.078;2022-09-01T03:16:12;4.68;;;1.05;;
52043;SDS011;38053;53.100;6.078;2022-09-01T03:18:38;2.85;;;1.42;;
52043;SDS011;38053;53.100;6.078;2022-09-01T03:21:04;2.17;;;1.08;;
52043;SDS011;38053;53.100;6.078;2022-09-01T03:23:31;4.57;;;1.00;;
52043;SDS011;38053;53.100;6.078;2022-09-01T03:25:58;2.05;;;1.00;;
52043;SDS011;38053;53.100;6.078;2022-09-01T03:28:23;2.50;;;1.60;;
52043;SDS011;38053;53.100;6.078;2022-09-01T03:30:50;3.78;;;1.35;;
52043;SDS011;38053;53.100;6.078;2022-09-01T03:33:18;2.58;;;1.38;;
52043;SDS011;38053;53.100;6.078;2022-09-01T03:35:45;7.32;;;1.15;;
52043;SDS011;38053;53.100;6.078;2022-09-01T03:38:12;2.78;;;1.20;;
52043;SDS011;38053;53.100;6.078;2022-09-01T03:40:46;5.40;;;1.95;;
52043;SDS011;38053;53.100;6.078;2022-09-01T03:43:14;1.63;;;0.95;;
52043;SDS011;38053;53.100;6.078;2022-09-01T03:45:41;4.50;;;1.58;;
52043;SDS011;38053;53.100;6.078;2022-09-01T03:48:07;3.83;;;1.50;;
52043;SDS011;38053;53.100;6.078;2022-09-01T03:50:35;3.30;;;1.48;;
52043;SDS011;38053;53.100;6.078;2022-09-01T03:53:10;5.32;;;1.20;;
52043;SDS011;38053;53.100;6.078;2022-09-01T03:55:44;2.60;;;1.30;;
52043;SDS011;38053;53.100;6.078;2022-09-01T03:58:12;2.75;;;1.30;;
52043;SDS011;38053;53.100;6.078;2022-09-01T04:00:44;4.78;;;1.58;;
52043;SDS011;38053;53.100;6.078;2022-09-01T04:03:12;4.97;;;1.50;;
52043;SDS011;38053;53.100;6.078;2022-09-01T04:05:41;3.80;;;1.20;;
52043;SDS011;38053;53.100;6.078;2022-09-01T04:08:08;3.63;;;1.60;;
52043;SDS011;38053;53.100;6.078;2022-09-01T04:10:46;4.55;;;1.20;;
52043;SDS011;38053;53.100;6.078;2022-09-01T04:13:20;1.60;;;1.00;;
52043;SDS011;38053;53.100;6.078;2022-09-01T04:15:49;4.07;;;1.30;;
52043;SDS011;38053;53.100;6.078;2022-09-01T04:18:20;2.85;;;1.20;;
52043;SDS011;38053;53.100;6.078;2022-09-01T04:20:50;2.72;;;1.48;;
52043;SDS011;38053;53.100;6.078;2022-09-01T04:23:20;4.95;;;1.50;;
52043;SDS011;38053;53.100;6.078;2022-09-01T04:26:05;2.95;;;1.27;;
52043;SDS011;38053;53.100;6.078;2022-09-01T04:31:07;5.82;;;1.58;;
52043;SDS011;38053;53.100;6.078;2022-09-01T04:33:35;3.00;;;1.30;;
52043;SDS011;38053;53.100;6.078;2022-09-01T04:36:06;2.97;;;1.27;;
52043;SDS011;38053;53.100;6.078;2022-09-01T04:38:49;3.35;;;1.42;;
52043;SDS011;38053;53.100;6.078;2022-09-01T04:41:19;2.25;;;1.17;;
52043;SDS011;38053;53.100;6.078;2022-09-01T04:43:46;2.78;;;1.45;;
52043;SDS011;38053;53.100;6.078;2022-09-01T04:46:14;2.67;;;1.40;;
52043;SDS011;38053;53.100;6.078;2022-09-01T04:48:40;1.95;;;1.13;;
52043;SDS011;38053;53.100;6.078;2022-09-01T04:51:10;2.92;;;1.17;;
52043;SDS011;38053;53.100;6.078;2022-09-01T04:53:40;3.78;;;1.50;;
52043;SDS011;38053;53.100;6.078;2022-09-01T04:56:13;3.67;;;1.40;;
52043;SDS011;38053;53.100;6.078;2022-09-01T04:58:47;2.67;;;1.15;;
52043;SDS011;38053;53.100;6.078;2022-09-01T05:01:18;2.95;;;1.48;;
52043;SDS011;38053;53.100;6.078;2022-09-01T05:03:46;2.88;;;1.50;;
52043;SDS011;38053;53.100;6.078;2022-09-01T05:06:20;3.42;;;1.70;;
52043;SDS011;38053;53.100;6.078;2022-09-01T05:08:47;2.72;;;1.45;;
52043;SDS011;38053;53.100;6.078;2022-09-01T05:11:14;3.40;;;1.52;;
52043;SDS011;38053;53.100;6.078;2022-09-01T05:13:43;2.15;;;1.20;;
52043;SDS011;38053;53.100;6.078;2022-09-01T05:16:11;4.10;;;1.48;;
52043;SDS011;38053;53.100;6.078;2022-09-01T05:18:40;3.42;;;1.85;;
52043;SDS011;38053;53.100;6.078;2022-09-01T05:21:14;4.85;;;1.48;;
52043;SDS011;38053;53.100;6.078;2022-09-01T05:23:42;3.45;;;1.42;;
52043;SDS011;38053;53.100;6.078;2022-09-01T05:26:13;2.63;;;1.70;;
52043;SDS011;38053;53.100;6.078;2022-09-01T05:28:52;3.47;;;1.52;;
52043;SDS011;38053;53.100;6.078;2022-09-01T05:31:26;4.03;;;1.85;;
52043;SDS011;38053;53.100;6.078;2022-09-01T05:33:58;3.40;;;1.48;;
52043;SDS011;38053;53.100;6.078;2022-09-01T05:36:25;5.32;;;1.60;;
52043;SDS011;38053;53.100;6.078;2022-09-01T05:38:55;8.10;;;1.90;;
52043;SDS011;38053;53.100;6.078;2022-09-01T05:41:23;3.15;;;1.63;;
52043;SDS011;38053;53.100;6.078;2022-09-01T05:43:49;2.72;;;1.63;;
52043;SDS011;38053;53.100;6.078;2022-09-01T05:46:23;4.18;;;1.55;;
52043;SDS011;38053;53.100;6.078;2022-09-01T05:48:51;4.18;;;1.77;;
52043;SDS011;38053;53.100;6.078;2022-09-01T05:51:19;3.72;;;1.77;;
52043;SDS011;38053;53.100;6.078;2022-09-01T05:53:50;6.97;;;1.88;;
52043;SDS011;38053;53.100;6.078;2022-09-01T05:56:17;2.58;;;1.52;;
52043;SDS011;38053;53.100;6.078;2022-09-01T05:58:44;7.90;;;2.92;;
52043;SDS011;38053;53.100;6.078;2022-09-01T06:01:16;2.63;;;1.35;;
52043;SDS011;38053;53.100;6.078;2022-09-01T06:03:52;4.10;;;1.48;;
52043;SDS011;38053;53.100;6.078;2022-09-01T06:06:20;4.43;;;1.70;;
52043;SDS011;38053;53.100;6.078;2022-09-01T06:08:47;6.28;;;1.88;;
52043;SDS011;38053;53.100;6.078;2022-09-01T06:11:17;4.32;;;1.80;;
52043;SDS011;38053;53.100;6.078;2022-09-01T06:13:44;3.72;;;1.80;;
52043;SDS011;38053;53.100;6.078;2022-09-01T06:16:11;2.78;;;1.58;;
52043;SDS011;38053;53.100;6.078;2022-09-01T06:18:41;3.08;;;1.73;;
52043;SDS011;38053;53.100;6.078;2022-09-01T06:21:07;2.80;;;1.70;;
52043;SDS011;38053;53.100;6.078;2022-09-01T06:23:36;3.90;;;1.73;;
52043;SDS011;38053;53.100;6.078;2022-09-01T06:26:04;4.40;;;1.48;;
52043;SDS011;38053;53.100;6.078;2022-09-01T06:28:32;3.03;;;1.65;;
52043;SDS011;38053;53.100;6.078;2022-09-01T06:31:05;3.45;;;1.52;;
52043;SDS011;38053;53.100;6.078;2022-09-01T06:33:33;4.97;;;2.00;;
52043;SDS011;38053;53.100;6.078;2022-09-01T06:36:00;4.53;;;1.55;;
52043;SDS011;38053;53.100;6.078;2022-09-01T06:38:28;3.83;;;1.90;;
52043;SDS011;38053;53.100;6.078;2022-09-01T06:41:00;5.70;;;2.15;;
52043;SDS011;38053;53.100;6.078;2022-09-01T06:43:28;3.30;;;1.50;;
52043;SDS011;38053;53.100;6.078;2022-09-01T06:45:54;3.55;;;1.63;;
52043;SDS011;38053;53.100;6.078;2022-09-01T06:48:23;4.25;;;1.65;;
52043;SDS011;38053;53.100;6.078;2022-09-01T06:50:48;2.75;;;1.38;;
52043;SDS011;38053;53.100;6.078;2022-09-01T06:53:15;6.50;;;2.03;;
52043;SDS011;38053;53.100;6.078;2022-09-01T06:55:42;3.22;;;1.65;;
52043;SDS011;38053;53.100;6.078;2022-09-01T06:58:12;2.10;;;1.08;;
52043;SDS011;38053;53.100;6.078;2022-09-01T07:00:40;9.43;;;1.85;;
52043;SDS011;38053;53.100;6.078;2022-09-01T07:03:10;4.57;;;1.85;;
52043;SDS011;38053;53.100;6.078;2022-09-01T07:05:42;3.50;;;1.70;;
52043;SDS011;38053;53.100;6.078;2022-09-01T07:08:11;3.75;;;1.75;;
52043;SDS011;38053;53.100;6.078;2022-09-01T07:10:48;4.55;;;2.03;;
52043;SDS011;38053;53.100;6.078;2022-09-01T07:13:16;3.22;;;1.70;;
52043;SDS011;38053;53.100;6.078;2022-09-01T07:15:51;4.40;;;1.80;;
52043;SDS011;38053;53.100;6.078;2022-09-01T07:18:21;5.10;;;1.75;;
52043;SDS011;38053;53.100;6.078;2022-09-01T07:20:49;3.35;;;1.55;;
52043;SDS011;38053;53.100;6.078;2022-09-01T07:23:17;5.63;;;1.83;;
52043;SDS011;38053;53.100;6.078;2022-09-01T07:25:45;5.10;;;1.90;;
52043;SDS011;38053;53.100;6.078;2022-09-01T07:28:13;3.10;;;1.50;;
52043;SDS011;38053;53.100;6.078;2022-09-01T07:30:46;3.03;;;1.58;;
52043;SDS011;38053;53.100;6.078;2022-09-01T07:33:22;2.67;;;1.30;;
52043;SDS011;38053;53.100;6.078;2022-09-01T07:38:36;4.60;;;1.70;;
52043;SDS011;38053;53.100;6.078;2022-09-01T07:41:11;3.15;;;1.45;;
52043;SDS011;38053;53.100;6.078;2022-09-01T07:43:43;6.65;;;2.03;;
52043;SDS011;38053;53.100;6.078;2022-09-01T07:46:19;3.25;;;1.60;;
52043;SDS011;38053;53.100;6.078;2022-09-01T07:51:38;6.27;;;1.50;;
52043;SDS011;38053;53.100;6.078;2022-09-01T07:54:14;3.13;;;1.25;;
52043;SDS011;38053;53.100;6.078;2022-09-01T07:56:49;3.85;;;1.70;;
52043;SDS011;38053;53.100;6.078;2022-09-01T07:59:19;9.32;;;2.00;;
52043;SDS011;38053;53.100;6.078;2022-09-01T08:01:54;6.28;;;1.40;;
52043;SDS011;38053;53.100;6.078;2022-09-01T08:04:23;2.83;;;1.20;;
52043;SDS011;38053;53.100;6.078;2022-09-01T08:06:56;3.75;;;1.48;;
52043;SDS011;38053;53.100;6.078;2022-09-01T08:09:25;3.05;;;1.40;;
52043;SDS011;38053;53.100;6.078;2022-09-01T08:11:54;4.35;;;1.30;;
52043;SDS011;38053;53.100;6.078;2022-09-01T08:14:23;7.68;;;1.52;;
52043;SDS011;38053;53.100;6.078;2022-09-01T08:17:02;2.50;;;1.27;;
52043;SDS011;38053;53.100;6.078;2022-09-01T08:19:42;5.53;;;1.30;;
52043;SDS011;38053;53.100;6.078;2022-09-01T08:22:31;3.22;;;1.40;;
52043;SDS011;38053;53.100;6.078;2022-09-01T08:24:58;3.85;;;1.55;;
52043;SDS011;38053;53.100;6.078;2022-09-01T08:27:23;3.22;;;1.10;;
52043;SDS011;38053;53.100;6.078;2022-09-01T08:29:55;2.42;;;1.00;;
52043;SDS011;38053;53.100;6.078;2022-09-01T08:32:33;2.55;;;1.35;;
52043;SDS011;38053;53.100;6.078;2022-09-01T08:35:25;3.67;;;1.60;;
52043;SDS011;38053;53.100;6.078;2022-09-01T08:38:02;3.28;;;1.33;;
52043;SDS011;38053;53.100;6.078;2022-09-01T08:40:48;3.83;;;1.42;;
52043;SDS011;38053;53.100;6.078;2022-09-01T08:46:13;3.00;;;1.25;;
52043;SDS011;38053;53.100;6.078;2022-09-01T08:48:54;4.97;;;1.45;;
52043;SDS011;38053;53.100;6.078;2022-09-01T08:52:29;2.92;;;1.40;;
52043;SDS011;38053;53.100;6.078;2022-09-01T08:55:18;3.20;;;1.20;;
52043;SDS011;38053;53.100;6.078;2022-09-01T08:58:29;2.03;;;1.25;;
52043;SDS011;38053;53.100;6.078;2022-09-01T09:01:23;2.78;;;1.15;;
52043;SDS011;38053;53.100;6.078;2022-09-01T09:16:01;3.35;;;1.08;;
52043;SDS011;38053;53.100;6.078;2022-09-01T09:18:41;3.15;;;1.13;;
52043;SDS011;38053;53.100;6.078;2022-09-01T09:21:26;2.42;;;1.00;;
52043;SDS011;38053;53.100;6.078;2022-09-01T09:23:59;2.78;;;1.08;;
52043;SDS011;38053;53.100;6.078;2022-09-01T09:26:34;1.98;;;0.90;;
52043;SDS011;38053;53.100;6.078;2022-09-01T09:29:00;1.77;;;0.95;;
52043;SDS011;38053;53.100;6.078;2022-09-01T09:33:52;3.60;;;0.85;;
52043;SDS011;38053;53.100;6.078;2022-09-01T09:36:40;2.35;;;0.75;;
52043;SDS011;38053;53.100;6.078;2022-09-01T09:39:07;2.00;;;0.73;;
52043;SDS011;38053;53.100;6.078;2022-09-01T09:41:38;1.27;;;0.60;;
52043;SDS011;38053;53.100;6.078;2022-09-01T09:46:47;1.88;;;0.68;;
52043;SDS011;38053;53.100;6.078;2022-09-01T09:51:45;1.60;;;0.88;;
52043;SDS011;38053;53.100;6.078;2022-09-01T09:54:23;1.30;;;0.60;;
52043;SDS011;38053;53.100;6.078;2022-09-01T10:02:40;2.83;;;1.23;;
52043;SDS011;38053;53.100;6.078;2022-09-01T10:07:48;2.22;;;0.60;;
52043;SDS011;38053;53.100;6.078;2022-09-01T10:10:25;2.08;;;1.13;;
52043;SDS011;38053;53.100;6.078;2022-09-01T10:12:54;3.17;;;0.50;;
52043;SDS011;38053;53.100;6.078;2022-09-01T10:15:22;3.28;;;0.77;;
52043;SDS011;38053;53.100;6.078;2022-09-01T10:17:52;2.20;;;0.70;;
52043;SDS011;38053;53.100;6.078;2022-09-01T10:20:21;4.45;;;0.80;;
52043;SDS011;38053;53.100;6.078;2022-09-01T10:22:55;2.97;;;0.90;;
52043;SDS011;38053;53.100;6.078;2022-09-01T10:25:23;2.05;;;0.65;;
52043;SDS011;38053;53.100;6.078;2022-09-01T10:30:24;3.00;;;0.80;;
52043;SDS011;38053;53.100;6.078;2022-09-01T10:32:51;2.47;;;1.08;;
52043;SDS011;38053;53.100;6.078;2022-09-01T10:35:25;2.28;;;0.60;;
52043;SDS011;38053;53.100;6.078;2022-09-01T10:37:54;0.90;;;0.60;;
52043;SDS011;38053;53.100;6.078;2022-09-01T10:46:00;2.00;;;0.65;;
52043;SDS011;38053;53.100;6.078;2022-09-01T10:48:41;0.82;;;0.60;;
52043;SDS011;38053;53.100;6.078;2022-09-01T10:53:46;1.25;;;0.57;;
52043;SDS011;38053;53.100;6.078;2022-09-01T11:04:08;2.38;;;0.70;;
52043;SDS011;38053;53.100;6.078;2022-09-01T11:09:20;1.92;;;0.63;;
52043;SDS011;38053;53.100;6.078;2022-09-01T11:15:31;2.75;;;0.50;;
52043;SDS011;38053;53.100;6.078;2022-09-01T11:17:59;2.25;;;0.63;;
52043;SDS011;38053;53.100;6.078;2022-09-01T11:25:46;3.15;;;0.60;;
52043;SDS011;38053;53.100;6.078;2022-09-01T11:36:10;5.50;;;0.70;;
52043;SDS011;38053;53.100;6.078;2022-09-01T11:38:45;3.80;;;0.70;;
52043;SDS011;38053;53.100;6.078;2022-09-01T11:41:31;4.15;;;1.00;;
52043;SDS011;38053;53.100;6.078;2022-09-01T11:44:15;1.65;;;0.57;;
52043;SDS011;38053;53.100;6.078;2022-09-01T11:46:56;2.88;;;0.50;;
52043;SDS011;38053;53.100;6.078;2022-09-01T11:49:59;2.38;;;0.55;;
52043;SDS011;38053;53.100;6.078;2022-09-01T11:52:40;1.40;;;0.50;;
52043;SDS011;38053;53.100;6.078;2022-09-01T11:55:15;1.08;;;0.63;;
52043;SDS011;38053;53.100;6.078;2022-09-01T11:58:04;1.17;;;0.60;;
52043;SDS011;38053;53.100;6.078;2022-09-01T12:00:32;1.48;;;0.73;;
52043;SDS011;38053;53.100;6.078;2022-09-01T12:03:04;5.07;;;0.65;;
52043;SDS011;38053;53.100;6.078;2022-09-01T12:05:44;4.70;;;1.00;;
52043;SDS011;38053;53.100;6.078;2022-09-01T12:08:16;4.22;;;1.17;;
52043;SDS011;38053;53.100;6.078;2022-09-01T12:10:43;2.50;;;0.80;;
52043;SDS011;38053;53.100;6.078;2022-09-01T12:13:15;1.73;;;0.60;;
52043;SDS011;38053;53.100;6.078;2022-09-01T12:15:53;2.33;;;0.60;;
52043;SDS011;38053;53.100;6.078;2022-09-01T12:18:26;1.48;;;0.70;;
52043;SDS011;38053;53.100;6.078;2022-09-01T12:20:55;2.55;;;0.57;;
52043;SDS011;38053;53.100;6.078;2022-09-01T12:25:55;3.97;;;0.57;;
52043;SDS011;38053;53.100;6.078;2022-09-01T12:28:23;2.25;;;0.85;;
52043;SDS011;38053;53.100;6.078;2022-09-01T12:30:50;1.88;;;0.65;;
52043;SDS011;38053;53.100;6.078;2022-09-01T12:33:19;2.13;;;0.60;;
52043;SDS011;38053;53.100;6.078;2022-09-01T12:35:45;1.92;;;1.05;;
52043;SDS011;38053;53.100;6.078;2022-09-01T12:40:43;2.53;;;0.70;;
52043;SDS011;38053;53.100;6.078;2022-09-01T12:43:09;4.45;;;0.88;;
52043;SDS011;38053;53.100;6.078;2022-09-01T12:45:45;2.17;;;1.05;;
52043;SDS011;38053;53.100;6.078;2022-09-01T12:50:55;4.10;;;0.85;;
52043;SDS011;38053;53.100;6.078;2022-09-01T12:53:23;3.17;;;0.65;;
52043;SDS011;38053;53.100;6.078;2022-09-01T12:56:15;1.35;;;0.60;;
52043;SDS011;38053;53.100;6.078;2022-09-01T12:58:46;2.53;;;0.60;;
52043;SDS011;38053;53.100;6.078;2022-09-01T13:07:13;5.10;;;0.80;;
52043;SDS011;38053;53.100;6.078;2022-09-01T13:09:38;3.60;;;1.10;;
52043;SDS011;38053;53.100;6.078;2022-09-01T13:12:10;1.75;;;1.20;;
52043;SDS011;38053;53.100;6.078;2022-09-01T13:14:44;5.15;;;0.70;;
52043;SDS011;38053;53.100;6.078;2022-09-01T13:17:10;1.80;;;0.82;;
52043;SDS011;38053;53.100;6.078;2022-09-01T13:19:36;2.08;;;0.75;;
52043;SDS011;38053;53.100;6.078;2022-09-01T13:22:03;3.63;;;0.80;;
52043;SDS011;38053;53.100;6.078;2022-09-01T13:24:31;2.25;;;0.60;;
52043;SDS011;38053;53.100;6.078;2022-09-01T13:26:56;1.08;;;0.52;;
52043;SDS011;38053;53.100;6.078;2022-09-01T13:29:23;3.33;;;0.70;;
52043;SDS011;38053;53.100;6.078;2022-09-01T13:31:48;4.05;;;0.50;;
52043;SDS011;38053;53.100;6.078;2022-09-01T13:34:15;1.20;;;0.63;;
52043;SDS011;38053;53.100;6.078;2022-09-01T13:36:41;1.67;;;0.70;;
52043;SDS011;38053;53.100;6.078;2022-09-01T13:39:06;1.27;;;0.50;;
52043;SDS011;38053;53.100;6.078;2022-09-01T13:41:32;2.70;;;0.63;;
52043;SDS011;38053;53.100;6.078;2022-09-01T13:43:58;0.82;;;0.73;;
52043;SDS011;38053;53.100;6.078;2022-09-01T13:46:24;2.35;;;0.70;;
52043;SDS011;38053;53.100;6.078;2022-09-01T13:48:50;3.50;;;0.88;;
52043;SDS011;38053;53.100;6.078;2022-09-01T13:51:25;0.88;;;0.57;;
52043;SDS011;38053;53.100;6.078;2022-09-01T13:53:52;3.45;;;0.68;;
52043;SDS011;38053;53.100;6.078;2022-09-01T13:56:18;1.95;;;0.50;;
52043;SDS011;38053;53.100;6.078;2022-09-01T13:58:44;1.48;;;0.50;;
52043;SDS011;38053;53.100;6.078;2022-09-01T14:01:10;1.98;;;1.10;;
52043;SDS011;38053;53.100;6.078;2022-09-01T14:03:37;3.15;;;0.90;;
52043;SDS011;38053;53.100;6.078;2022-09-01T14:06:03;2.72;;;0.95;;
52043;SDS011;38053;53.100;6.078;2022-09-01T14:08:30;4.55;;;0.88;;
52043;SDS011;38053;53.100;6.078;2022-09-01T14:10:58;1.88;;;0.80;;
52043;SDS011;38053;53.100;6.078;2022-09-01T14:13:24;2.80;;;0.82;;
52043;SDS011;38053;53.100;6.078;2022-09-01T14:15:50;1.15;;;0.68;;
52043;SDS011;38053;53.100;6.078;2022-09-01T14:18:17;5.68;;;0.75;;
52043;SDS011;38053;53.100;6.078;2022-09-01T14:20:45;3.22;;;0.65;;
52043;SDS011;38053;53.100;6.078;2022-09-01T14:23:13;6.22;;;1.60;;
52043;SDS011;38053;53.100;6.078;2022-09-01T14:25:41;1.15;;;0.50;;
52043;SDS011;38053;53.100;6.078;2022-09-01T14:28:08;1.35;;;0.50;;
52043;SDS011;38053;53.100;6.078;2022-09-01T14:30:34;1.23;;;0.45;;
52043;SDS011;38053;53.100;6.078;2022-09-01T14:33:00;1.15;;;0.70;;
52043;SDS011;38053;53.100;6.078;2022-09-01T14:35:27;0.98;;;0.50;;
52043;SDS011;38053;53.100;6.078;2022-09-01T14:37:54;3.67;;;0.57;;
52043;SDS011;38053;53.100;6.078;2022-09-01T14:40:20;4.05;;;0.80;;
52043;SDS011;38053;53.100;6.078;2022-09-01T14:42:48;0.55;;;0.47;;
52043;SDS011;38053;53.100;6.078;2022-09-01T14:45:20;8.32;;;0.52;;
52043;SDS011;38053;53.100;6.078;2022-09-01T14:47:48;2.60;;;0.75;;
52043;SDS011;38053;53.100;6.078;2022-09-01T14:50:17;1.33;;;0.33;;
52043;SDS011;38053;53.100;6.078;2022-09-01T14:52:44;0.88;;;0.40;;
52043;SDS011;38053;53.100;6.078;2022-09-01T14:55:11;1.00;;;0.50;;
52043;SDS011;38053;53.100;6.078;2022-09-01T14:57:37;1.92;;;0.88;;
52043;SDS011;38053;53.100;6.078;2022-09-01T15:00:04;8.27;;;0.80;;
52043;SDS011;38053;53.100;6.078;2022-09-01T15:02:34;1.10;;;0.40;;
52043;SDS011;38053;53.100;6.078;2022-09-01T15:05:00;1.70;;;0.50;;
52043;SDS011;38053;53.100;6.078;2022-09-01T15:07:26;3.15;;;0.68;;
52043;SDS011;38053;53.100;6.078;2022-09-01T15:09:52;0.88;;;0.50;;
52043;SDS011;38053;53.100;6.078;2022-09-01T15:12:21;3.75;;;0.50;;
52043;SDS011;38053;53.100;6.078;2022-09-01T15:14:49;1.65;;;0.60;;
52043;SDS011;38053;53.100;6.078;2022-09-01T15:17:14;1.67;;;0.60;;
52043;SDS011;38053;53.100;6.078;2022-09-01T15:20:04;1.85;;;0.60;;
52043;SDS011;38053;53.100;6.078;2022-09-01T15:22:49;1.98;;;0.65;;
52043;SDS011;38053;53.100;6.078;2022-09-01T15:25:16;1.40;;;0.65;;
52043;SDS011;38053;53.100;6.078;2022-09-01T15:27:42;3.83;;;0.70;;
52043;SDS011;38053;53.100;6.078;2022-09-01T15:30:08;2.20;;;0.60;;
52043;SDS011;38053;53.100;6.078;2022-09-01T15:32:48;1.65;;;0.65;;
52043;SDS011;38053;53.100;6.078;2022-09-01T15:35:17;3.95;;;0.63;;
52043;SDS011;38053;53.100;6.078;2022-09-01T15:37:47;1.70;;;0.90;;
52043;SDS011;38053;53.100;6.078;2022-09-01T15:40:19;1.30;;;0.65;;
52043;SDS011;38053;53.100;6.078;2022-09-01T15:42:46;0.77;;;0.57;;
52043;SDS011;38053;53.100;6.078;2022-09-01T15:45:18;2.28;;;0.95;;
52043;SDS011;38053;53.100;6.078;2022-09-01T15:47:45;2.25;;;0.70;;
52043;SDS011;38053;53.100;6.078;2022-09-01T15:50:18;1.77;;;0.60;;
52043;SDS011;38053;53.100;6.078;2022-09-01T15:56:10;0.93;;;0.50;;
52043;SDS011;38053;53.100;6.078;2022-09-01T15:58:35;1.88;;;0.52;;
52043;SDS011;38053;53.100;6.078;2022-09-01T16:01:05;4.90;;;1.23;;
52043;SDS011;38053;53.100;6.078;2022-09-01T16:03:31;1.20;;;0.60;;
52043;SDS011;38053;53.100;6.078;2022-09-01T16:05:58;1.52;;;0.50;;
52043;SDS011;38053;53.100;6.078;2022-09-01T16:08:28;3.85;;;0.75;;
52043;SDS011;38053;53.100;6.078;2022-09-01T16:10:56;1.30;;;0.60;;
52043;SDS011;38053;53.100;6.078;2022-09-01T16:13:22;1.15;;;0.68;;
52043;SDS011;38053;53.100;6.078;2022-09-01T16:16:04;2.60;;;0.70;;
52043;SDS011;38053;53.100;6.078;2022-09-01T16:18:52;1.60;;;1.00;;
52043;SDS011;38053;53.100;6.078;2022-09-01T16:23:58;1.45;;;0.40;;
52043;SDS011;38053;53.100;6.078;2022-09-01T16:26:29;1.58;;;0.55;;
52043;SDS011;38053;53.100;6.078;2022-09-01T16:28:58;1.25;;;0.50;;
52043;SDS011;38053;53.100;6.078;2022-09-01T16:31:30;1.95;;;1.05;;
52043;SDS011;38053;53.100;6.078;2022-09-01T16:33:57;2.20;;;0.57;;
52043;SDS011;38053;53.100;6.078;2022-09-01T16:39:11;2.00;;;0.63;;
52043;SDS011;38053;53.100;6.078;2022-09-01T16:47:51;1.08;;;0.52;;
52043;SDS011;38053;53.100;6.078;2022-09-01T16:56:49;1.63;;;0.70;;
52043;SDS011;38053;53.100;6.078;2022-09-01T17:01:34;1.92;;;0.80;;
52043;SDS011;38053;53.100;6.078;2022-09-01T17:07:12;2.58;;;0.88;;
52043;SDS011;38053;53.100;6.078;2022-09-01T17:09:44;3.17;;;0.60;;